Sign-in with your pilot id or email, or register

Flight ORB115

  • Submitted By: Thomas Schedl
  • Departure Airport: Okecie (EPWA)
  • Arrival Airport: Bologna (LIPE)
  • Aircraft: B737-700 (EI-RAB)
  • Flight Time: 1.49
  • Date Submitted: 27/07/2019
  • Route: EVINA OVBOR LUVOD Q10 PADKA MORKO STO SNU J21 KFT KUBUD ROSKA CHI MIVBO
  • Status: Accepted
Flight Details
Gross Revenue:
(128 load / € 299.00 per unit
€ 38, 272.00
Fuel Cost:
(10623 fuel used @ 0.882 / unit)
€ 9, 369.49

Additional Log Information:

View Log

[2019/07/28 09:46:00]
Flight IATA:ORB115
Pilot Number:ORB0001
Company ICAO:ORB
Aircraft Type:B737-800
PAX:128
Aircraft Registration:EI-RAB
Departing Airport: EPWA
Destination Airport: LIPE
Alternate Airport:LIRF
Online: No
Route:EVINA OVBOR LUVOD Q10 PADKA MORKO STO SNU J21 KFT KUBUD ROSKA CHI MIVBO
Flight Level:35000
09:46 Zero fuel Weight: 128103 Lbs, Fuel Weight: 18359 Lbs
09:46 VATSIM:EPWA 272100Z 08009KT 9999 VCTS SCT060CB 21/17 Q1007 BECMG NSW
09:46 VATSIM:LIPE 272050Z 19006KT 9999 -RA SCT035 SCT070 19/18 Q1003 RERA
09:51 Parking Brakes off
09:51 Com1 Freq=121.95
09:51 V2= 250 Knots
09:51 Take-off
09:51 Take off Weight: 145820 Lbs
09:51 Wind: 181? @ 009 Knots Heading: 152?
09:51 POS N52? 08? 07?? E020? 59? 34??
09:51 N11 84 N12 84
09:51 Gear Up: 250 Knots
09:59 Com1 Freq=134.12
10:06 Wind:350?@050 Knots Heading: 216? Ground Speed: 472 Knots Altitude 29324ft
10:09 TOC
10:09 Fuel Weight: 14445 Lb
10:18 Com1 Freq=127.90
10:21 Wind:306?@054 Knots Heading: 233? Ground Speed: 439 Knots Altitude 34996 ft
10:32 Com1 Freq=124.40
10:36 Wind:345?@056 Knots Heading: 165? Ground Speed: 505 Knots Altitude 34993 ft
10:51 Wind:299?@025 Knots Heading: 247? Ground Speed: 432 Knots Altitude 34996 ft
10:56 Com1 Freq=121.32
10:56 TOD
10:56 Fuel Weight: 10209 Lb
11:03 Com1 Freq=124.15
11:06 Wind:269?@016 Knots Heading: 217? Ground Speed: 366 Knots Altitude 20695 ft
11:11 Com1 Freq=120.10
11:21 Wind:239?@012 Knots Heading: 235? Ground Speed: 252 Knots Altitude 3208 ft
11:34 Com1 Freq=120.80
11:35 Gear Down: 216 Knots
11:35 Flaps:1 at 207 Knots
11:35 Flaps:2 at 208 Knots
11:35 Flaps:3 at 208 Knots
11:35 Flaps:4 at 206 Knots
11:35 Flaps:5 at 205 Knots
11:35 Flaps:6 at 203 Knots
11:36 Wind:220?@007 Knots Heading: 294? Ground Speed: 191 Knots Altitude 2004 ft
11:36 Flaps:7 at 166 Knots
11:36 Flaps:8 at 134 Knots
11:38 TouchDown:Rate -176 ft/min Speed: 108 Knots
11:38 VATSIM:LIPE 272050Z 19006KT 9999 -RA SCT035 SCT070 19/18 Q1003 RERA
11:38 Land
11:38 Wind:142?@005 Knots
11:38 Heading: 295?
11:38 Flight Duration: 01:47
11:38 Landing Weight: 136027 Lbs
11:38 POS N44? 32? 03?? E011? 17? 31??
11:38 Com1 Freq=118.20
11:40 Parking brakes on
11:40 Block to Block Duration: 01:49
11:40 Final Fuel: 7735 Lbls
11:40 Spent Fuel: 10623 Lbls
11:40 Flight Length: 673 NM
11:40 TOD Land Length: 206 NM

Route Map